PAWS

Details ICAO PAWS
Name WASILLA
Region USA (Alaska)
Timezone America/Anchorage (UTC-8.0)
Plans Departing 4
Arriving 6
Stats Elevation 354 ft / 108 m (AMSL)
Location 61.571660° -149.540296°
Runways 1
Magnetic Variation 16.279° E
Sunrise 2018-05-27 12:40:43 UTC / 2018-05-27 04:40:43 Local
Sunset 2018-05-28 07:12:53 UTC / 2018-05-27 23:12:53 Local
Advertisement - Login to hide

Runways

ID Width Length Bearing (true) Bearing (mag) Surface Threshold Offset Overrun Length
03 75 ft / 23 m 3,689 ft / 1,125 m 56.19° 39.91° Asphalt 0 ft / 0 m 200 ft / 61 m
21 75 ft / 23 m 3,689 ft / 1,125 m 236.20° 219.92° Asphalt 0 ft / 0 m 300 ft / 91 m

Map

Weather


0- 5 10 15 20 25 30 35+ Temperature / ° C

Clouds and Precipitation
Forecast for 2018-05-28 00:00 UTC. Updated 4 hours ago

Ground ~20,000 ft ~40,000 ft Winds

METAR

PAWS 280256Z AUTO 17003KT 10SM BKN085 OVC110 12/09 A2971 RMK AO2 RAE20 SLP077 P0000 60005 T01170094 53027

TAF

Not found

Frequencies

Recorded 135.25 MHz AWOS 3
Approach 119.10 MHz ANCHORAGE APP/DEP
Unicom 122.80 MHz CTAF
Warning: Do not use this data for real-world aviation or navigation. No guarantee of current accuracy is given.